createdAt,value
2018-03-04T00:00:25.071Z,45.60
2018-03-04T00:02:52.601Z,43.53
2018-03-04T00:05:20.909Z,42.90
2018-03-04T00:07:48.431Z,43.60
2018-03-04T00:10:16.976Z,42.80
2018-03-04T00:12:44.612Z,42.57
2018-03-04T00:15:12.141Z,44.40
2018-03-04T00:17:40.616Z,43.13
2018-03-04T00:20:08.373Z,42.70
2018-03-04T00:22:41.650Z,42.07
2018-03-04T00:25:09.911Z,43.17
2018-03-04T00:27:37.784Z,41.90
2018-03-04T00:30:06.221Z,42.23
2018-03-04T00:32:34.410Z,41.17
2018-03-04T00:35:02.210Z,40.43
2018-03-04T00:37:29.799Z,40.33
2018-03-04T00:39:58.751Z,40.60
2018-03-04T00:42:26.285Z,39.60
2018-03-04T00:44:53.832Z,39.07
2018-03-04T00:47:21.359Z,40.80
2018-03-04T00:49:48.892Z,38.93
2018-03-04T00:52:16.414Z,41.10
2018-03-04T00:54:44.032Z,38.93
2018-03-04T00:57:11.695Z,38.33
2018-03-04T00:59:40.071Z,38.13
2018-03-04T01:02:08.721Z,38.63
2018-03-04T01:04:36.428Z,37.47
2018-03-04T01:07:05.831Z,37.63
2018-03-04T01:09:34.701Z,35.97
2018-03-04T01:12:03.152Z,36.57
2018-03-04T01:14:31.122Z,36.87
2018-03-04T01:16:59.015Z,36.07
2018-03-04T01:19:26.529Z,35.43
2018-03-04T01:21:54.056Z,34.23
2018-03-04T01:24:21.588Z,35.50
2018-03-04T01:26:49.138Z,33.27
2018-03-04T01:29:16.672Z,33.70
2018-03-04T01:31:44.308Z,35.10
2018-03-04T01:34:12.731Z,34.53
2018-03-04T01:36:40.506Z,34.97
2018-03-04T01:39:08.154Z,34.07
2018-03-04T01:41:36.330Z,33.20
2018-03-04T01:44:04.608Z,33.73
2018-03-04T01:46:32.381Z,32.47
2018-03-04T01:48:59.945Z,31.97
2018-03-04T01:51:39.677Z,32.10
2018-03-04T01:54:07.486Z,32.47
2018-03-04T01:56:35.269Z,31.30
2018-03-04T01:59:04.799Z,31.57
2018-03-04T02:01:33.644Z,29.80
2018-03-04T02:04:01.187Z,31.10
2018-03-04T02:06:28.757Z,30.17
2018-03-04T02:08:56.281Z,32.47
2018-03-04T02:11:23.827Z,31.50
2018-03-04T02:13:51.355Z,31.67
2018-03-04T02:16:18.900Z,31.43
2018-03-04T02:18:46.421Z,30.97
2018-03-04T02:21:14.130Z,30.73
2018-03-04T02:23:43.478Z,31.33
2018-03-04T02:26:11.086Z,30.60
2018-03-04T02:28:38.800Z,31.47
2018-03-04T02:31:06.894Z,32.30
2018-03-04T02:33:35.594Z,33.20
2018-03-04T02:36:03.748Z,33.20
2018-03-04T02:38:31.414Z,34.13
2018-03-04T02:40:59.006Z,30.57
2018-03-04T02:43:26.534Z,33.53
2018-03-04T02:45:54.082Z,33.20
2018-03-04T02:48:21.627Z,33.77
2018-03-04T02:50:49.150Z,34.77
2018-03-04T02:53:16.701Z,33.97
2018-03-04T02:55:44.465Z,32.97
2018-03-04T02:58:13.127Z,33.10
2018-03-04T03:00:40.861Z,34.00
2018-03-04T03:03:08.544Z,31.63
2018-03-04T03:05:36.940Z,29.87
2018-03-04T03:08:05.609Z,32.30
2018-03-04T03:10:34.194Z,33.17
2018-03-04T03:13:03.805Z,33.77
2018-03-04T03:15:32.488Z,33.33
2018-03-04T03:18:00.957Z,31.87
2018-03-04T03:20:29.830Z,31.67
2018-03-04T03:22:58.153Z,31.03
2018-03-04T03:25:25.671Z,31.23
2018-03-04T03:27:53.965Z,31.13
2018-03-04T03:30:21.516Z,29.47
2018-03-04T03:32:49.099Z,31.10
2018-03-04T03:35:16.672Z,33.30
2018-03-04T03:37:44.233Z,30.83
2018-03-04T03:40:12.008Z,31.33
2018-03-04T03:42:41.294Z,31.07
2018-03-04T03:45:09.151Z,32.23
2018-03-04T03:47:38.447Z,31.83
2018-03-04T03:50:06.830Z,33.90
2018-03-04T03:52:34.912Z,34.53
2018-03-04T03:55:03.115Z,36.33
2018-03-04T03:57:31.814Z,36.23
2018-03-04T04:00:00.349Z,37.77
2018-03-04T04:02:27.885Z,37.33
2018-03-04T04:04:55.409Z,35.03
2018-03-04T04:07:22.960Z,35.63
2018-03-04T04:09:50.486Z,35.20
2018-03-04T04:12:18.016Z,35.73
2018-03-04T04:14:46.312Z,37.37
2018-03-04T04:17:14.083Z,34.60
2018-03-04T04:19:42.157Z,36.07
2018-03-04T04:22:10.026Z,32.30
2018-03-04T04:24:38.689Z,32.23
2018-03-04T04:27:06.884Z,34.23
2018-03-04T04:29:35.029Z,33.07
2018-03-04T04:32:03.305Z,34.03
2018-03-04T04:34:30.882Z,33.63
2018-03-04T04:37:00.280Z,33.07
2018-03-04T04:39:27.859Z,33.30
2018-03-04T04:41:55.394Z,32.37
2018-03-04T04:44:23.803Z,32.80
2018-03-04T04:46:51.334Z,32.10
2018-03-04T04:49:18.872Z,33.33
2018-03-04T04:51:47.184Z,32.20
2018-03-04T04:54:14.853Z,32.53
2018-03-04T04:56:42.561Z,31.27
2018-03-04T04:59:10.284Z,33.50
2018-03-04T05:01:39.074Z,31.60
2018-03-04T05:04:07.077Z,33.10
2018-03-04T05:06:35.017Z,32.40
2018-03-04T05:09:04.372Z,32.63
2018-03-04T05:11:32.386Z,32.90
2018-03-04T05:14:00.737Z,32.20
2018-03-04T05:16:29.066Z,32.40
2018-03-04T05:18:56.602Z,33.07
2018-03-04T05:21:24.536Z,34.13
2018-03-04T05:23:52.848Z,33.40
2018-03-04T05:26:20.369Z,33.03
2018-03-04T05:28:48.786Z,33.17
2018-03-04T05:31:16.315Z,33.53
2018-03-04T05:33:45.077Z,34.27
2018-03-04T05:36:12.800Z,34.53
2018-03-04T05:38:40.564Z,33.33
2018-03-04T05:41:08.366Z,35.17
2018-03-04T05:43:35.968Z,32.33
2018-03-04T05:46:05.136Z,36.33
2018-03-04T05:48:33.802Z,33.50
2018-03-04T05:51:01.582Z,34.27
2018-03-04T05:53:29.915Z,33.20
2018-03-04T05:55:57.464Z,35.77
2018-03-04T05:58:25.016Z,37.40
2018-03-04T06:00:52.566Z,37.83
2018-03-04T06:03:20.864Z,35.90
2018-03-04T06:05:49.401Z,36.80
2018-03-04T06:08:16.953Z,33.53
2018-03-04T06:10:44.542Z,33.00
2018-03-04T06:13:12.951Z,35.00
2018-03-04T06:15:40.552Z,32.07
2018-03-04T06:18:09.014Z,34.43
2018-03-04T06:20:37.595Z,33.93
2018-03-04T06:23:05.348Z,33.63
2018-03-04T06:25:33.214Z,34.30
2018-03-04T06:28:00.774Z,33.17
2018-03-04T06:30:29.052Z,33.13
2018-03-04T06:32:56.641Z,32.93
2018-03-04T06:35:25.301Z,33.47
2018-03-04T06:37:52.860Z,33.17
2018-03-04T06:40:20.384Z,31.83
2018-03-04T06:42:48.298Z,34.43
2018-03-04T06:45:15.825Z,34.10
2018-03-04T06:47:44.142Z,34.73
2018-03-04T06:50:12.401Z,33.73
2018-03-04T06:52:40.293Z,35.10
2018-03-04T06:55:07.931Z,35.93
2018-03-04T06:57:35.696Z,33.33
2018-03-04T07:00:04.198Z,32.43
2018-03-04T07:02:32.722Z,33.53
2018-03-04T07:05:00.308Z,30.67
2018-03-04T07:07:28.086Z,30.13
2018-03-04T07:09:55.618Z,29.73
2018-03-04T07:12:23.222Z,30.47
2018-03-04T07:14:50.744Z,30.50
2018-03-04T07:17:18.312Z,30.60
2018-03-04T07:19:46.095Z,29.10
2018-03-04T07:22:14.214Z,32.87
2018-03-04T07:24:42.906Z,31.27
2018-03-04T07:27:11.593Z,31.47
2018-03-04T07:29:39.618Z,31.57
2018-03-04T07:32:07.786Z,29.57
2018-03-04T07:34:36.366Z,32.13
2018-03-04T07:37:04.731Z,29.60
2018-03-04T07:39:32.920Z,29.27
2018-03-04T07:42:00.483Z,29.47
2018-03-04T07:44:28.102Z,26.37
2018-03-04T07:46:55.624Z,26.87
2018-03-04T07:49:23.210Z,28.67
2018-03-04T07:51:54.012Z,26.37
2018-03-04T07:54:21.542Z,25.27
2018-03-04T07:56:49.105Z,25.50
2018-03-04T07:59:16.967Z,24.90
2018-03-04T08:01:44.730Z,23.63
2018-03-04T08:04:12.433Z,23.43
2018-03-04T08:06:40.988Z,21.03
2018-03-04T08:09:08.867Z,20.87
2018-03-04T08:11:36.529Z,19.50
2018-03-04T08:14:04.532Z,18.27
2018-03-04T08:16:32.547Z,18.37
2018-03-04T08:19:00.228Z,18.50
2018-03-04T08:21:27.823Z,16.90
2018-03-04T08:23:55.499Z,17.23
2018-03-04T08:26:35.757Z,17.20
2018-03-04T08:29:04.068Z,16.17
2018-03-04T08:31:31.600Z,15.73
2018-03-04T08:33:59.898Z,14.50
2018-03-04T08:36:28.051Z,15.30
2018-03-04T08:38:56.662Z,15.33
2018-03-04T08:41:24.545Z,15.17
2018-03-04T08:43:52.297Z,13.43
2018-03-04T08:46:20.077Z,15.20
2018-03-04T08:48:50.142Z,14.00
2018-03-04T08:51:18.685Z,15.13
2018-03-04T08:53:46.376Z,14.33
2018-03-04T08:56:14.336Z,13.13
2018-03-04T08:58:42.953Z,12.87
2018-03-04T09:01:11.271Z,12.07
2018-03-04T09:03:39.028Z,11.73
2018-03-04T09:06:06.631Z,11.60
2018-03-04T09:08:34.240Z,10.27
2018-03-04T09:11:01.847Z,10.43
2018-03-04T09:13:29.413Z,10.13
2018-03-04T09:15:58.470Z,11.20
2018-03-04T09:18:26.313Z,10.70
2018-03-04T09:20:54.017Z,10.10
2018-03-04T09:23:23.323Z,11.20
2018-03-04T09:25:51.448Z,10.97
2018-03-04T09:28:19.612Z,10.30
2018-03-04T09:30:50.098Z,11.23
2018-03-04T09:33:18.857Z,12.50
2018-03-04T09:35:46.377Z,12.07
2018-03-04T09:38:14.188Z,11.80
2018-03-04T09:40:41.821Z,12.00
2018-03-04T09:43:09.458Z,11.27
2018-03-04T09:45:37.783Z,12.57
2018-03-04T09:48:06.269Z,13.03
2018-03-04T09:50:33.936Z,11.97
2018-03-04T09:53:01.612Z,12.10
2018-03-04T09:55:29.237Z,13.13
2018-03-04T09:57:57.228Z,12.53
2018-03-04T10:00:24.895Z,12.93
2018-03-04T10:02:52.620Z,12.67
2018-03-04T10:05:20.627Z,12.57
2018-03-04T10:07:48.697Z,11.93
2018-03-04T10:10:16.768Z,13.67
2018-03-04T10:12:45.228Z,12.97
2018-03-04T10:15:12.814Z,10.60
2018-03-04T10:17:40.514Z,13.53
2018-03-04T10:20:08.056Z,13.03
2018-03-04T10:22:35.602Z,12.20
2018-03-04T10:25:03.137Z,11.70
2018-03-04T10:27:30.703Z,12.33
2018-03-04T10:29:58.337Z,12.03
2018-03-04T10:32:26.866Z,10.73
2018-03-04T10:34:56.061Z,12.83
2018-03-04T10:37:23.837Z,13.67
2018-03-04T10:39:52.467Z,14.73
2018-03-04T10:42:20.644Z,11.77
2018-03-04T10:44:48.336Z,15.50
2018-03-04T10:47:16.824Z,15.27
2018-03-04T10:49:44.373Z,15.67
2018-03-04T10:52:11.905Z,15.63
2018-03-04T10:54:40.188Z,16.53
2018-03-04T10:57:08.474Z,16.93
2018-03-04T10:59:36.054Z,11.77
2018-03-04T11:02:04.485Z,15.50
2018-03-04T11:04:32.024Z,16.57
2018-03-04T11:06:59.655Z,15.73
2018-03-04T11:09:27.733Z,16.23
2018-03-04T11:11:55.398Z,19.23
2018-03-04T11:14:23.482Z,17.17
2018-03-04T11:16:51.469Z,19.20
2018-03-04T11:19:19.611Z,18.27
2018-03-04T11:21:48.911Z,19.07
2018-03-04T11:24:16.896Z,18.53
2018-03-04T11:26:44.421Z,17.20
2018-03-04T11:29:11.968Z,19.03
2018-03-04T11:31:40.256Z,19.87
2018-03-04T11:34:07.794Z,16.37
2018-03-04T11:36:36.116Z,16.37
2018-03-04T11:39:03.646Z,16.07
2018-03-04T11:41:31.936Z,17.33
2018-03-04T11:43:59.556Z,17.83
2018-03-04T11:46:27.128Z,14.67
2018-03-04T11:48:55.556Z,18.23
2018-03-04T11:51:23.178Z,17.33
2018-03-04T11:53:52.084Z,14.60
2018-03-04T11:56:19.974Z,15.30
2018-03-04T11:58:49.079Z,12.83
2018-03-04T12:01:17.758Z,12.77
2018-03-04T12:03:45.373Z,11.63
2018-03-04T12:06:13.689Z,10.97
2018-03-04T12:08:41.236Z,12.17
2018-03-04T12:11:08.805Z,13.67
2018-03-04T12:13:36.359Z,12.70
2018-03-04T12:16:03.882Z,13.47
2018-03-04T12:18:31.409Z,13.13
2018-03-04T12:20:59.054Z,13.60
2018-03-04T12:23:26.728Z,13.97
2018-03-04T12:25:55.245Z,13.30
2018-03-04T12:28:22.913Z,13.23
2018-03-04T12:30:51.553Z,13.33
2018-03-04T12:33:19.930Z,12.37
2018-03-04T12:35:49.138Z,12.77
2018-03-04T12:38:18.732Z,12.87
2018-03-04T12:40:46.409Z,11.47
2018-03-04T12:43:13.991Z,12.50
2018-03-04T12:45:41.571Z,13.50
2018-03-04T12:48:09.101Z,12.87
2018-03-04T12:50:36.662Z,13.30
2018-03-04T12:53:04.198Z,12.77
2018-03-04T12:55:31.773Z,13.30
2018-03-04T12:57:59.674Z,12.17
2018-03-04T13:00:28.312Z,12.80
2018-03-04T13:02:55.948Z,13.03
2018-03-04T13:05:23.747Z,13.20
2018-03-04T13:07:52.870Z,13.53
2018-03-04T13:10:20.989Z,13.10
2018-03-04T13:12:48.690Z,13.47
2018-03-04T13:15:16.747Z,13.57
2018-03-04T13:17:45.137Z,13.63
2018-03-04T13:20:13.002Z,13.53
2018-03-04T13:22:40.533Z,14.13
2018-03-04T13:25:08.090Z,15.30
2018-03-04T13:27:35.641Z,16.37
2018-03-04T13:30:03.177Z,14.93
2018-03-04T13:32:30.708Z,14.10
2018-03-04T13:34:58.615Z,14.03
2018-03-04T13:37:27.030Z,14.57
2018-03-04T13:39:54.906Z,14.60
2018-03-04T13:42:22.846Z,14.30
2018-03-04T13:44:52.278Z,14.17
2018-03-04T13:47:19.919Z,15.63
2018-03-04T13:49:47.616Z,15.80
2018-03-04T13:52:15.153Z,15.00
2018-03-04T13:54:42.688Z,15.70
2018-03-04T13:57:11.010Z,15.53
2018-03-04T13:59:38.555Z,14.33
2018-03-04T14:04:57.393Z,12.50
2018-03-04T14:07:25.037Z,10.23
2018-03-04T14:09:53.419Z,15.50
2018-03-04T14:12:21.424Z,14.40
2018-03-04T14:14:49.329Z,15.40
2018-03-04T14:17:17.061Z,13.23
2018-03-04T14:19:44.638Z,15.53
2018-03-04T14:22:12.166Z,13.40
2018-03-04T14:24:40.472Z,12.03
2018-03-04T14:27:08.017Z,13.10
2018-03-04T14:29:35.548Z,12.23
2018-03-04T14:32:03.854Z,12.20
2018-03-04T14:34:31.844Z,12.90
2018-03-04T14:36:59.419Z,11.40
2018-03-04T14:39:26.961Z,12.83
2018-03-04T14:41:54.540Z,12.20
2018-03-04T14:44:22.944Z,12.33
2018-03-04T14:46:51.259Z,11.30
2018-03-04T14:49:20.399Z,11.70
2018-03-04T14:51:49.281Z,13.30
2018-03-04T15:05:53.994Z,12.23
2018-03-04T15:08:21.529Z,12.20
2018-03-04T15:10:49.137Z,11.53
2018-03-04T15:13:16.690Z,11.37
2018-03-04T15:15:44.541Z,12.03
2018-03-04T15:18:12.475Z,11.90
2018-03-04T15:20:40.957Z,12.57
2018-03-04T15:23:08.522Z,12.47
2018-03-04T15:25:36.201Z,11.97
2018-03-04T15:28:06.321Z,11.97
2018-03-04T15:30:34.099Z,11.27
2018-03-04T15:33:03.286Z,12.23
2018-03-04T15:35:31.477Z,12.93
2018-03-04T15:38:00.518Z,12.20
2018-03-04T15:40:28.287Z,12.30
2018-03-04T15:42:55.825Z,11.80
2018-03-04T15:45:23.349Z,13.37
2018-03-04T15:47:50.908Z,12.50
2018-03-04T15:50:18.460Z,12.53
2018-03-04T15:52:46.046Z,13.00
2018-03-04T15:55:13.830Z,13.00
2018-03-04T15:57:42.365Z,13.37
2018-03-04T16:00:11.031Z,12.33
2018-03-04T16:02:40.025Z,12.60
2018-03-04T16:05:08.362Z,13.83
2018-03-04T16:07:36.773Z,12.43
2018-03-04T16:10:04.979Z,12.80
2018-03-04T16:12:32.542Z,13.60
2018-03-04T16:15:00.073Z,13.23
2018-03-04T16:17:28.385Z,12.90
2018-03-04T16:19:55.909Z,13.80
2018-03-04T16:22:24.286Z,13.27
2018-03-04T16:24:53.054Z,13.83
2018-03-04T16:27:20.588Z,13.67
2018-03-04T16:29:49.280Z,13.83
2018-03-04T16:32:16.898Z,14.50
2018-03-04T16:34:44.576Z,14.37
2018-03-04T16:37:12.552Z,14.70
2018-03-04T16:39:40.597Z,14.23
2018-03-04T16:42:08.993Z,13.27
2018-03-04T16:44:36.860Z,13.60
2018-03-04T16:47:05.037Z,15.57
2018-03-04T16:49:32.674Z,14.87
2018-03-04T16:52:00.197Z,14.80
2018-03-04T16:54:28.591Z,15.10
2018-03-04T16:56:56.113Z,13.90
2018-03-04T16:59:23.644Z,14.87
2018-03-04T17:01:51.217Z,13.93
2018-03-04T17:04:18.978Z,14.70
2018-03-04T17:06:46.767Z,15.57
2018-03-04T17:09:14.511Z,14.10
2018-03-04T17:11:42.142Z,13.80
2018-03-04T17:14:09.855Z,14.97
2018-03-04T17:16:37.689Z,14.07
2018-03-04T17:19:06.725Z,15.13
2018-03-04T17:21:35.801Z,14.13
2018-03-04T17:24:03.386Z,14.40
2018-03-04T17:26:31.002Z,14.07
2018-03-04T17:28:58.548Z,14.07
2018-03-04T17:31:26.859Z,13.33
2018-03-04T17:33:54.406Z,14.33
2018-03-04T17:36:21.934Z,13.77
2018-03-04T17:38:50.869Z,13.67
2018-03-04T17:41:18.404Z,14.00
2018-03-04T17:43:45.950Z,14.70
2018-03-04T17:46:14.626Z,14.00
2018-03-04T17:48:43.366Z,14.30
2018-03-04T17:51:11.326Z,14.10
2018-03-04T17:53:40.136Z,14.00
2018-03-04T17:56:07.797Z,14.70
2018-03-04T17:58:36.054Z,14.77
2018-03-04T18:01:03.677Z,15.40
2018-03-04T18:03:31.366Z,15.30
2018-03-04T18:05:59.657Z,14.73
2018-03-04T18:08:27.524Z,14.37
2018-03-04T18:10:55.873Z,15.73
2018-03-04T18:13:24.217Z,15.23
2018-03-04T18:15:51.837Z,13.63
2018-03-04T18:18:20.102Z,13.47
2018-03-04T18:20:48.043Z,14.13
2018-03-04T18:23:16.365Z,14.00
2018-03-04T18:25:44.154Z,13.87
2018-03-04T18:28:11.998Z,14.73
2018-03-04T18:30:40.174Z,13.93
2018-03-04T18:33:08.451Z,13.47
2018-03-04T18:35:37.533Z,13.40
2018-03-04T18:38:06.452Z,12.50
2018-03-04T18:40:34.756Z,13.60
2018-03-04T18:43:02.582Z,12.03
2018-03-04T18:45:30.165Z,12.40
2018-03-04T18:47:57.691Z,12.57
2018-03-04T18:50:25.213Z,13.20
2018-03-04T18:52:53.135Z,12.63
2018-03-04T18:55:20.658Z,12.57
2018-03-04T18:57:48.966Z,12.00
2018-03-04T19:00:16.560Z,12.00
2018-03-04T19:02:44.143Z,11.13
2018-03-04T19:05:12.670Z,10.50
2018-03-04T19:07:41.034Z,10.93
2018-03-04T19:10:09.441Z,10.53
2018-03-04T19:12:37.311Z,10.33
2018-03-04T19:15:05.984Z,10.17
2018-03-04T19:17:33.618Z,9.80
2018-03-04T19:20:01.921Z,10.30
2018-03-04T19:22:29.614Z,9.37
2018-03-04T19:24:58.271Z,10.57
2018-03-04T19:27:26.056Z,10.53
2018-03-04T19:29:53.634Z,10.97
2018-03-04T19:32:21.674Z,9.87
2018-03-04T19:34:49.248Z,9.40
2018-03-04T19:37:16.823Z,9.67
2018-03-04T19:39:44.338Z,8.30
2018-03-04T19:42:11.979Z,8.23
2018-03-04T19:44:39.758Z,8.67
2018-03-04T19:47:08.473Z,9.77
2018-03-04T19:49:36.334Z,8.73
2018-03-04T19:52:04.406Z,9.40
2018-03-04T19:54:32.856Z,7.50
2018-03-04T19:57:01.318Z,6.70
2018-03-04T19:59:29.948Z,4.83
2018-03-04T20:01:57.590Z,4.67
2018-03-04T20:04:25.870Z,5.17
2018-03-04T20:06:53.411Z,4.10
2018-03-04T20:09:21.691Z,4.53
2018-03-04T20:11:50.015Z,3.80
2018-03-04T20:14:17.548Z,4.17
2018-03-04T20:16:45.182Z,3.87
2018-03-04T20:19:13.497Z,3.90
2018-03-04T20:21:41.418Z,3.90
2018-03-04T20:24:09.929Z,3.80
2018-03-04T20:26:38.564Z,3.70
2018-03-04T20:29:07.578Z,3.77
2018-03-04T20:31:35.604Z,3.53
2018-03-04T20:34:03.401Z,3.93
2018-03-04T20:36:31.138Z,4.10
2018-03-04T20:38:58.794Z,4.07
2018-03-04T20:41:26.344Z,3.90
2018-03-04T20:43:53.888Z,3.90
2018-03-04T20:46:22.190Z,4.50
2018-03-04T20:48:49.730Z,3.87
2018-03-04T20:51:17.436Z,4.17
2018-03-04T20:53:45.502Z,4.03
2018-03-04T20:56:13.475Z,4.10
2018-03-04T20:58:41.141Z,3.80
2018-03-04T21:01:08.761Z,3.97
2018-03-04T21:03:36.543Z,3.70
2018-03-04T21:06:05.338Z,4.17
2018-03-04T21:08:32.877Z,4.50
2018-03-04T21:11:01.158Z,4.23
2018-03-04T21:13:28.735Z,4.20
2018-03-04T21:15:56.245Z,3.87
2018-03-04T21:18:24.534Z,3.50
2018-03-04T21:20:52.842Z,4.30
2018-03-04T21:23:20.374Z,4.63
2018-03-04T21:25:47.909Z,3.50
2018-03-04T21:28:15.850Z,3.17
2018-03-04T21:30:43.817Z,3.70
2018-03-04T21:33:11.405Z,3.77
2018-03-04T21:35:40.152Z,3.60
2018-03-04T21:38:08.446Z,3.70
2018-03-04T21:40:36.825Z,3.70
2018-03-04T21:43:04.985Z,3.53
2018-03-04T21:45:33.986Z,3.63
2018-03-04T21:48:02.442Z,3.40
2018-03-04T21:50:29.989Z,3.53
2018-03-04T21:52:57.509Z,3.00
2018-03-04T21:55:25.140Z,2.87
2018-03-04T21:57:52.679Z,2.83
2018-03-04T22:00:20.227Z,2.73
2018-03-04T22:02:48.519Z,2.20
2018-03-04T22:05:16.197Z,2.57
2018-03-04T22:07:44.034Z,2.00
2018-03-04T22:10:12.036Z,2.03
2018-03-04T22:12:40.173Z,1.97
2018-03-04T22:15:08.403Z,1.90
2018-03-04T22:17:37.396Z,2.13
2018-03-04T22:20:06.168Z,1.70
2018-03-04T22:22:35.161Z,1.80
2018-03-04T22:25:03.850Z,2.27
2018-03-04T22:27:31.406Z,1.97
2018-03-04T22:29:58.931Z,1.70
2018-03-04T22:32:27.209Z,2.00
2018-03-04T22:34:55.536Z,1.90
2018-03-04T22:37:23.054Z,2.30
2018-03-04T22:39:51.341Z,2.00
2018-03-04T22:42:18.894Z,2.00
2018-03-04T22:44:46.654Z,2.20
2018-03-04T22:47:15.881Z,2.10
2018-03-04T22:49:44.542Z,2.23
2018-03-04T22:52:12.129Z,2.20
2018-03-04T22:54:39.888Z,2.20
2018-03-04T22:57:07.984Z,2.20
2018-03-04T22:59:36.687Z,2.47
2018-03-04T23:02:05.034Z,2.30
2018-03-04T23:04:34.845Z,2.43
2018-03-04T23:07:02.413Z,2.60
2018-03-04T23:09:29.964Z,2.80
2018-03-04T23:11:57.509Z,2.87
2018-03-04T23:14:25.047Z,3.13
2018-03-04T23:16:53.335Z,3.23
2018-03-04T23:19:21.650Z,3.17
2018-03-04T23:21:49.191Z,3.47
2018-03-04T23:24:16.913Z,3.90
2018-03-04T23:26:44.908Z,3.33
2018-03-04T23:29:12.918Z,3.97
2018-03-04T23:31:41.613Z,4.07
2018-03-04T23:34:10.380Z,3.97
2018-03-04T23:36:38.404Z,4.07
2018-03-04T23:39:07.202Z,4.10
2018-03-04T23:41:35.292Z,4.63
2018-03-04T23:44:02.818Z,4.63
2018-03-04T23:46:30.340Z,4.13
2018-03-04T23:48:57.890Z,4.77
2018-03-04T23:51:25.420Z,4.27
2018-03-04T23:53:53.704Z,4.20
2018-03-04T23:56:21.236Z,4.30
2018-03-04T23:58:48.752Z,4.83
